Spiegelgracht — PCEO — position and weather

sailwx.info

Track history (hours):
 
Tides and Currents Weather Stations Pressure Air Temp Water Temp Dewpoint Dewpoint Depression Visibility Wind Speed Wind Dir Waves Ship Positions

Spiegelgracht

Last reported at 2020-Jun-06 11:00 UTC. Time now 2020-Jun-06 14:42 UTC.
Position N 37°07' W 076°08'.

Length 168 m; beam 25 m.

Type: Cargo ship. MMSI: 245789000.

Date/timePositionNaut miles runAvg speedWind from/ knotsBaromVisibWave heightAir tempDewpointWater temp
2020-Jun-06 11:00N 37°07' W 076°08'815.4
2020-Jun-06 10:30N 37°01' W 076°02'6811.3
2020-Jun-06 04:30N 37°19' W 074°40'1715.5
2020-Jun-06 03:26N 37°28' W 074°23'716.8
2020-Jun-06 03:00N 37°31' W 074°15'  
2020-May-28 05:00N 49°26' W 006°05'8418.7
2020-May-28 00:31N 49°49' W 004°01'3517.7
2020-May-27 22:31N 49°58' W 003°08'1716.8
2020-May-27 21:31N 50°03' W 002°43'6518.6
2020-May-27 18:00N 50°20' W 001°04'2121.0
2020-May-27 17:01N 50°26' W 000°33'3019.7
2020-May-27 15:30N 50°33' E 000°12'1818.5
2020-May-27 14:30N 50°40' E 000°40'1817.8
2020-May-27 13:31N 50°51' E 001°02'917.8
2020-May-27 13:00N 50°57' E 001°12'  
Track history (hours):
 
Tides and Currents Weather Stations Pressure Air Temp Water Temp Dewpoint Dewpoint Depression Visibility Wind Speed Wind Dir Waves Ship Positions

Spiegelgracht

Last reported at 2020-Jun-06 11:00 UTC. Time now 2020-Jun-06 14:42 UTC.
Position N 37°07' W 076°08'.

Length 168 m; beam 25 m.

Type: Cargo ship. MMSI: 245789000.

Date/timePositionNaut miles runAvg speedWind from/ knotsBaromVisibWave heightAir tempDewpointWater temp
2020-Jun-06 11:00N 37°07' W 076°08'815.4
2020-Jun-06 10:30N 37°01' W 076°02'6811.3
2020-Jun-06 04:30N 37°19' W 074°40'1715.5
2020-Jun-06 03:26N 37°28' W 074°23'716.8
2020-Jun-06 03:00N 37°31' W 074°15'  
2020-May-28 05:00N 49°26' W 006°05'8418.7
2020-May-28 00:31N 49°49' W 004°01'3517.7
2020-May-27 22:31N 49°58' W 003°08'1716.8
2020-May-27 21:31N 50°03' W 002°43'6518.6
2020-May-27 18:00N 50°20' W 001°04'2121.0
2020-May-27 17:01N 50°26' W 000°33'3019.7
2020-May-27 15:30N 50°33' E 000°12'1818.5
2020-May-27 14:30N 50°40' E 000°40'1817.8
2020-May-27 13:31N 50°51' E 001°02'917.8
2020-May-27 13:00N 50°57' E 001°12'  

Dump ship's entire track history